createdAt,value
2018-08-22T00:02:26.805Z,27.40
2018-08-22T00:05:07.434Z,27.40
2018-08-22T00:07:48.090Z,27.40
2018-08-22T00:10:28.742Z,27.30
2018-08-22T00:13:10.233Z,27.30
2018-08-22T00:15:51.542Z,27.30
2018-08-22T00:18:32.270Z,27.30
2018-08-22T00:21:12.815Z,27.30
2018-08-22T00:23:53.524Z,27.30
2018-08-22T00:26:34.090Z,27.30
2018-08-22T00:29:14.787Z,27.30
2018-08-22T00:31:56.297Z,27.30
2018-08-22T00:34:36.972Z,27.30
2018-08-22T00:37:18.527Z,27.30
2018-08-22T00:39:59.082Z,27.40
2018-08-22T00:42:39.763Z,27.40
2018-08-22T00:45:20.312Z,27.40
2018-08-22T00:48:01.018Z,27.40
2018-08-22T00:50:42.597Z,27.50
2018-08-22T00:53:24.109Z,27.50
2018-08-22T00:56:04.673Z,27.50
2018-08-22T00:58:45.289Z,27.50
2018-08-22T01:01:25.886Z,27.50
2018-08-22T01:04:06.633Z,27.50
2018-08-22T01:06:49.005Z,27.50
2018-08-22T01:09:29.734Z,27.50
2018-08-22T01:12:10.340Z,27.50
2018-08-22T01:14:51.832Z,27.60
2018-08-22T01:17:32.561Z,27.60
2018-08-22T01:20:14.081Z,27.60
2018-08-22T01:22:54.617Z,27.60
2018-08-22T01:25:35.319Z,27.60
2018-08-22T01:28:15.882Z,27.60
2018-08-22T01:30:56.426Z,27.60
2018-08-22T01:33:37.313Z,27.60
2018-08-22T01:36:18.774Z,27.60
2018-08-22T01:38:59.411Z,27.50
2018-08-22T01:41:39.975Z,27.50
2018-08-22T01:44:20.601Z,27.40
2018-08-22T01:47:01.975Z,27.40
2018-08-22T01:49:42.621Z,27.30
2018-08-22T01:52:23.278Z,27.30
2018-08-22T01:55:03.969Z,27.20
2018-08-22T01:57:45.301Z,27.20
2018-08-22T02:00:26.042Z,27.20
2018-08-22T02:03:07.393Z,27.20
2018-08-22T02:05:47.970Z,27.20
2018-08-22T02:08:28.486Z,27.20
2018-08-22T02:11:09.144Z,27.10
2018-08-22T02:13:49.676Z,27.10
2018-08-22T02:16:30.303Z,27.00
2018-08-22T02:19:11.769Z,27.00
2018-08-22T02:21:52.511Z,27.00
2018-08-22T02:24:33.141Z,26.90
2018-08-22T02:27:13.760Z,26.80
2018-08-22T02:29:54.451Z,26.80
2018-08-22T02:32:35.067Z,26.70
2018-08-22T02:35:16.765Z,26.70
2018-08-22T02:37:58.094Z,26.70
2018-08-22T02:40:39.522Z,26.60
2018-08-22T02:43:20.193Z,26.50
2018-08-22T02:46:01.000Z,26.50
2018-08-22T02:48:47.440Z,26.50
2018-08-22T02:51:28.004Z,26.40
2018-08-22T02:54:08.537Z,26.40
2018-08-22T02:56:50.057Z,26.40
2018-08-22T02:59:30.653Z,26.40
2018-08-22T03:02:11.377Z,26.40
2018-08-22T03:04:51.898Z,26.40
2018-08-22T03:07:32.549Z,26.40
2018-08-22T03:10:13.996Z,26.40
2018-08-22T03:12:54.681Z,26.40
2018-08-22T03:15:35.377Z,26.40
2018-08-22T03:18:16.812Z,26.40
2018-08-22T03:20:57.368Z,26.40
2018-08-22T03:23:37.914Z,26.40
2018-08-22T03:26:18.631Z,26.40
2018-08-22T03:29:00.217Z,26.40
2018-08-22T03:31:41.892Z,26.40
2018-08-22T03:34:23.431Z,26.40
2018-08-22T03:37:04.089Z,26.30
2018-08-22T03:39:44.610Z,26.30
2018-08-22T03:42:25.341Z,26.40
2018-08-22T03:45:06.757Z,26.40
2018-08-22T03:47:48.217Z,26.40
2018-08-22T03:50:29.810Z,26.40
2018-08-22T03:53:10.401Z,26.40
2018-08-22T03:55:50.906Z,26.30
2018-08-22T03:58:31.549Z,26.30
2018-08-22T04:01:13.266Z,26.40
2018-08-22T04:03:54.522Z,26.40
2018-08-22T04:06:36.037Z,26.40
2018-08-22T04:09:17.494Z,26.40
2018-08-22T04:11:58.126Z,26.40
2018-08-22T04:14:38.857Z,26.40
2018-08-22T04:17:20.229Z,26.40
2018-08-22T04:20:00.939Z,26.40
2018-08-22T04:22:41.762Z,26.40
2018-08-22T04:25:22.298Z,26.40
2018-08-22T04:28:03.852Z,26.50
2018-08-22T04:30:44.574Z,26.50
2018-08-22T04:33:25.213Z,26.40
2018-08-22T04:36:06.506Z,26.40
2018-08-22T04:38:47.199Z,26.40
2018-08-22T04:41:29.051Z,26.30
2018-08-22T04:44:10.048Z,26.20
2018-08-22T04:46:50.874Z,26.20
2018-08-22T04:49:31.469Z,26.20
2018-08-22T04:52:12.117Z,26.10
2018-08-22T04:54:52.836Z,26.00
2018-08-22T04:57:34.204Z,26.00
2018-08-22T05:00:15.081Z,26.00
2018-08-22T05:02:55.792Z,25.90
2018-08-22T05:05:36.360Z,25.90
2018-08-22T05:08:17.086Z,25.90
2018-08-22T05:10:57.740Z,25.90
2018-08-22T05:13:38.892Z,25.90
2018-08-22T05:16:19.853Z,26.00
2018-08-22T05:19:00.410Z,26.00
2018-08-22T05:21:41.990Z,26.00
2018-08-22T05:24:23.407Z,25.90
2018-08-22T05:27:04.115Z,26.00
2018-08-22T05:29:44.839Z,26.00
2018-08-22T05:32:25.355Z,26.00
2018-08-22T05:35:05.981Z,26.10
2018-08-22T05:37:47.435Z,26.30
2018-08-22T05:40:29.015Z,26.50
2018-08-22T05:43:09.693Z,26.80
2018-08-22T05:45:50.953Z,27.00
2018-08-22T05:48:32.254Z,27.30
2018-08-22T05:51:13.018Z,27.70
2018-08-22T05:53:53.617Z,27.80
2018-08-22T05:56:34.254Z,28.10
2018-08-22T05:59:14.873Z,28.20
2018-08-22T06:01:56.303Z,28.30
2018-08-22T06:04:37.056Z,28.30
2018-08-22T06:07:18.506Z,28.40
2018-08-22T06:09:59.316Z,28.60
2018-08-22T06:12:39.953Z,28.90
2018-08-22T06:15:20.662Z,29.20
2018-08-22T06:18:02.134Z,29.50
2018-08-22T06:20:42.734Z,29.90
2018-08-22T06:23:23.409Z,30.30
2018-08-22T06:26:04.944Z,30.70
2018-08-22T06:28:45.545Z,31.00
2018-08-22T06:31:26.154Z,31.30
2018-08-22T06:34:06.975Z,31.40
2018-08-22T06:36:48.988Z,31.50
2018-08-22T06:39:29.906Z,31.40
2018-08-22T06:42:11.230Z,31.30
2018-08-22T06:44:52.178Z,31.20
2018-08-22T06:47:32.876Z,31.20
2018-08-22T06:50:14.146Z,31.10
2018-08-22T06:52:55.947Z,31.10
2018-08-22T06:55:36.713Z,31.30
2018-08-22T06:58:17.384Z,31.50
2018-08-22T07:00:58.078Z,31.80
2018-08-22T07:03:38.733Z,32.00
2018-08-22T07:06:19.341Z,32.00
2018-08-22T07:08:59.940Z,31.90
2018-08-22T07:11:40.509Z,31.70
2018-08-22T07:14:21.090Z,31.40
2018-08-22T07:17:02.754Z,31.40
2018-08-22T07:19:44.260Z,31.40
2018-08-22T07:22:24.841Z,31.40
2018-08-22T07:25:05.545Z,31.40
2018-08-22T07:27:46.257Z,31.40
2018-08-22T07:30:26.755Z,31.40
2018-08-22T07:33:07.569Z,31.40
2018-08-22T07:35:49.756Z,31.40
2018-08-22T07:38:30.729Z,31.40
2018-08-22T07:41:12.142Z,31.60
2018-08-22T07:43:52.781Z,31.70
2018-08-22T07:46:33.485Z,31.80
2018-08-22T07:49:14.918Z,31.90
2018-08-22T07:51:55.763Z,32.00
2018-08-22T07:54:43.872Z,32.10
2018-08-22T07:57:24.546Z,32.20
2018-08-22T08:00:05.122Z,32.30
2018-08-22T08:02:46.614Z,32.30
2018-08-22T08:05:27.407Z,32.40
2018-08-22T08:08:08.867Z,32.50
2018-08-22T08:10:49.528Z,32.70
2018-08-22T08:13:30.917Z,32.90
2018-08-22T08:16:12.322Z,33.10
2018-08-22T08:18:53.150Z,33.20
2018-08-22T08:21:33.758Z,33.50
2018-08-22T08:24:14.354Z,33.70
2018-08-22T08:26:55.105Z,34.10
2018-08-22T08:29:35.664Z,34.30
2018-08-22T08:32:17.296Z,34.50
2018-08-22T08:34:58.690Z,34.60
2018-08-22T08:37:40.166Z,34.60
2018-08-22T08:40:20.849Z,34.60
2018-08-22T08:43:01.405Z,34.60
2018-08-22T08:45:42.233Z,34.70
2018-08-22T08:48:23.567Z,34.80
2018-08-22T08:51:04.341Z,34.70
2018-08-22T08:53:44.940Z,34.60
2018-08-22T08:56:25.633Z,34.60
2018-08-22T08:59:06.951Z,34.50
2018-08-22T09:01:47.693Z,34.40
2018-08-22T09:04:29.263Z,34.40
2018-08-22T09:07:09.850Z,34.30
2018-08-22T09:09:50.362Z,34.20
2018-08-22T09:12:30.989Z,34.20
2018-08-22T09:15:11.595Z,34.10
2018-08-22T09:17:52.117Z,34.10
2018-08-22T09:20:32.792Z,34.10
2018-08-22T09:23:14.145Z,34.20
2018-08-22T09:25:54.761Z,34.30
2018-08-22T09:28:36.369Z,34.30
2018-08-22T09:31:17.906Z,34.40
2018-08-22T09:33:58.418Z,34.60
2018-08-22T09:36:39.095Z,34.70
2018-08-22T09:39:20.017Z,34.90
2018-08-22T09:42:01.653Z,35.10
2018-08-22T09:44:42.929Z,35.10
2018-08-22T09:47:23.606Z,35.20
2018-08-22T09:50:04.343Z,35.10
2018-08-22T09:52:45.487Z,35.10
2018-08-22T09:55:26.867Z,35.10
2018-08-22T09:58:08.180Z,35.10
2018-08-22T10:00:54.725Z,35.00
2018-08-22T10:03:37.897Z,34.80
2018-08-22T10:06:19.678Z,34.60
2018-08-22T10:09:03.261Z,34.40
2018-08-22T10:11:45.006Z,34.30
2018-08-22T10:14:26.436Z,34.10
2018-08-22T10:17:07.894Z,34.00
2018-08-22T10:19:48.410Z,33.80
2018-08-22T10:22:29.033Z,33.60
2018-08-22T10:25:09.551Z,33.40
2018-08-22T10:27:50.055Z,33.30
2018-08-22T10:30:30.705Z,33.20
2018-08-22T10:33:11.466Z,33.20
2018-08-22T10:35:52.262Z,33.10
2018-08-22T10:38:33.661Z,33.10
2018-08-22T10:41:14.207Z,33.10
2018-08-22T10:43:55.679Z,33.10
2018-08-22T10:46:36.217Z,33.20
2018-08-22T10:49:16.985Z,33.30
2018-08-22T10:51:57.581Z,33.40
2018-08-22T10:54:38.234Z,33.50
2018-08-22T10:57:18.897Z,33.60
2018-08-22T10:59:59.412Z,33.70
2018-08-22T11:02:39.994Z,33.70
2018-08-22T11:05:20.601Z,33.60
2018-08-22T11:08:01.269Z,33.50
2018-08-22T11:10:42.017Z,33.40
2018-08-22T11:13:23.490Z,33.30
2018-08-22T11:16:05.070Z,33.30
2018-08-22T11:18:46.448Z,33.20
2018-08-22T11:21:27.138Z,33.20
2018-08-22T11:24:07.791Z,33.20
2018-08-22T11:26:49.332Z,33.20
2018-08-22T11:29:30.627Z,33.10
2018-08-22T11:32:11.496Z,33.10
2018-08-22T11:34:52.971Z,33.00
2018-08-22T11:37:33.697Z,32.90
2018-08-22T11:40:14.224Z,32.80
2018-08-22T11:42:54.833Z,32.70
2018-08-22T11:45:35.338Z,32.40
2018-08-22T11:48:15.928Z,32.40
2018-08-22T11:50:57.437Z,32.40
2018-08-22T11:53:39.225Z,32.40
2018-08-22T11:56:20.624Z,32.40
2018-08-22T11:59:01.556Z,32.40
2018-08-22T12:01:42.993Z,32.40
2018-08-22T12:07:09.216Z,32.50
2018-08-22T12:09:49.728Z,32.60
2018-08-22T12:12:30.433Z,32.60
2018-08-22T12:15:11.125Z,32.70
2018-08-22T12:17:51.767Z,32.60
2018-08-22T12:20:32.434Z,32.70
2018-08-22T12:23:13.170Z,32.70
2018-08-22T12:25:54.252Z,32.70
2018-08-22T12:28:35.205Z,32.70
2018-08-22T12:31:15.872Z,32.80
2018-08-22T12:33:56.998Z,32.70
2018-08-22T12:36:38.023Z,32.60
2018-08-22T12:39:18.784Z,32.60
2018-08-22T12:42:00.261Z,32.60
2018-08-22T12:44:41.390Z,32.60
2018-08-22T12:47:22.529Z,32.60
2018-08-22T12:50:03.101Z,32.70
2018-08-22T12:52:44.560Z,32.70
2018-08-22T12:55:25.221Z,32.80
2018-08-22T12:58:05.925Z,32.90
2018-08-22T13:00:47.373Z,32.90
2018-08-22T13:03:27.846Z,32.90
2018-08-22T13:06:09.274Z,32.90
2018-08-22T13:08:50.029Z,32.80
2018-08-22T13:11:30.703Z,32.90
2018-08-22T13:14:11.300Z,32.90
2018-08-22T13:16:51.833Z,32.80
2018-08-22T13:19:33.301Z,32.80
2018-08-22T13:22:14.607Z,32.90
2018-08-22T13:24:55.526Z,32.90
2018-08-22T13:27:37.058Z,32.80
2018-08-22T13:30:18.584Z,32.70
2018-08-22T13:32:59.376Z,32.70
2018-08-22T13:35:40.806Z,32.80
2018-08-22T13:38:21.349Z,32.90
2018-08-22T13:41:02.165Z,32.90
2018-08-22T13:43:42.765Z,33.00
2018-08-22T13:46:24.333Z,33.10
2018-08-22T13:49:05.759Z,33.00
2018-08-22T13:51:47.224Z,33.10
2018-08-22T13:54:28.644Z,33.20
2018-08-22T13:57:10.149Z,33.20
2018-08-22T13:59:51.788Z,33.20
2018-08-22T14:02:34.055Z,33.10
2018-08-22T14:05:15.132Z,33.10
2018-08-22T14:07:55.780Z,33.00
2018-08-22T14:10:37.195Z,32.80
2018-08-22T14:13:21.469Z,32.80
2018-08-22T14:16:02.257Z,32.80
2018-08-22T14:18:42.759Z,32.90
2018-08-22T14:21:23.496Z,32.90
2018-08-22T14:24:05.045Z,32.90
2018-08-22T14:26:46.405Z,32.90
2018-08-22T14:29:27.119Z,32.90
2018-08-22T14:32:07.752Z,32.90
2018-08-22T14:34:48.359Z,32.90
2018-08-22T14:37:28.973Z,32.90
2018-08-22T14:40:09.820Z,32.90
2018-08-22T14:42:50.366Z,33.00
2018-08-22T14:45:31.040Z,32.90
2018-08-22T14:48:11.570Z,32.90
2018-08-22T14:50:52.076Z,32.90
2018-08-22T14:53:32.892Z,32.80
2018-08-22T14:56:13.700Z,32.70
2018-08-22T14:58:55.021Z,32.70
2018-08-22T15:01:35.506Z,32.70
2018-08-22T15:04:16.219Z,32.80
2018-08-22T15:06:56.731Z,32.70
2018-08-22T15:09:37.457Z,32.60
2018-08-22T15:12:18.182Z,32.40
2018-08-22T15:14:58.706Z,32.20
2018-08-22T15:17:39.449Z,32.10
2018-08-22T15:20:20.119Z,32.10
2018-08-22T15:23:01.506Z,32.00
2018-08-22T15:25:42.121Z,32.00
2018-08-22T15:28:22.642Z,31.90
2018-08-22T15:31:03.321Z,31.90
2018-08-22T15:33:44.538Z,31.90
2018-08-22T15:36:25.651Z,31.90
2018-08-22T15:39:07.654Z,31.90
2018-08-22T15:41:48.592Z,31.90
2018-08-22T15:44:29.205Z,31.80
2018-08-22T15:47:10.907Z,31.80
2018-08-22T15:49:51.993Z,31.80
2018-08-22T15:52:33.239Z,31.60
2018-08-22T15:55:13.802Z,31.60
2018-08-22T15:57:56.421Z,31.50
2018-08-22T16:00:42.593Z,31.40
2018-08-22T16:03:24.966Z,31.40
2018-08-22T16:06:06.489Z,31.20
2018-08-22T16:08:48.100Z,31.20
2018-08-22T16:11:29.609Z,31.10
2018-08-22T16:14:10.188Z,31.00
2018-08-22T16:16:51.557Z,30.90
2018-08-22T16:19:32.327Z,30.80
2018-08-22T16:22:13.858Z,30.70
2018-08-22T16:24:54.506Z,30.60
2018-08-22T16:27:38.921Z,30.50
2018-08-22T16:30:20.346Z,30.40
2018-08-22T16:33:01.058Z,30.30
2018-08-22T16:35:41.578Z,30.20
2018-08-22T16:38:22.162Z,30.10
2018-08-22T16:41:02.772Z,29.90
2018-08-22T16:43:44.349Z,29.80
2018-08-22T16:46:25.770Z,29.80
2018-08-22T16:49:06.517Z,29.70
2018-08-22T16:51:47.323Z,29.60
2018-08-22T16:54:27.950Z,29.60
2018-08-22T16:57:09.393Z,29.50
2018-08-22T16:59:49.883Z,29.40
2018-08-22T17:02:30.571Z,29.40
2018-08-22T17:05:12.040Z,29.30
2018-08-22T17:07:52.874Z,29.30
2018-08-22T17:10:41.501Z,29.30
2018-08-22T17:13:26.242Z,29.20
2018-08-22T17:16:06.916Z,29.20
2018-08-22T17:18:48.570Z,29.10
2018-08-22T17:21:29.883Z,29.10
2018-08-22T17:24:10.526Z,29.00
2018-08-22T17:26:51.207Z,29.00
2018-08-22T17:29:31.754Z,28.90
2018-08-22T17:32:12.397Z,28.90
2018-08-22T17:34:52.994Z,28.80
2018-08-22T17:37:33.626Z,28.80
2018-08-22T17:40:14.182Z,28.80
2018-08-22T17:42:55.454Z,28.70
2018-08-22T17:45:38.302Z,28.70
2018-08-22T17:48:19.128Z,28.70
2018-08-22T17:50:59.825Z,28.70
2018-08-22T17:53:41.306Z,28.70
2018-08-22T17:56:23.074Z,28.60
2018-08-22T17:59:04.329Z,28.60
2018-08-22T18:01:44.979Z,28.50
2018-08-22T18:04:26.415Z,28.40
2018-08-22T18:07:07.011Z,28.30
2018-08-22T18:09:48.829Z,28.30
2018-08-22T18:12:31.207Z,28.20
2018-08-22T18:15:12.045Z,28.10
2018-08-22T18:17:52.725Z,28.10
2018-08-22T18:20:38.473Z,28.00
2018-08-22T18:23:20.501Z,27.90
2018-08-22T18:26:03.670Z,27.90
2018-08-22T18:28:45.069Z,27.90
2018-08-22T18:31:26.438Z,27.90
2018-08-22T18:34:07.943Z,27.80
2018-08-22T18:36:49.490Z,27.80
2018-08-22T18:39:30.111Z,27.80
2018-08-22T18:42:10.726Z,27.70
2018-08-22T18:44:51.516Z,27.80
2018-08-22T18:47:34.120Z,27.70
2018-08-22T18:50:15.998Z,27.70
2018-08-22T18:52:58.402Z,27.70
2018-08-22T18:55:39.738Z,27.70
2018-08-22T18:58:20.469Z,27.70
2018-08-22T19:01:01.159Z,27.70
2018-08-22T19:03:42.494Z,27.70
2018-08-22T19:06:23.115Z,27.70
2018-08-22T19:09:04.348Z,27.70
2018-08-22T19:11:45.318Z,27.70
2018-08-22T19:14:26.467Z,27.70
2018-08-22T19:17:07.960Z,27.70
2018-08-22T19:19:49.125Z,27.70
2018-08-22T19:22:29.629Z,27.70
2018-08-22T19:25:10.382Z,27.80
2018-08-22T19:27:51.753Z,27.80
2018-08-22T19:30:33.342Z,27.80
2018-08-22T19:33:17.178Z,27.70
2018-08-22T19:35:58.696Z,27.70
2018-08-22T19:38:40.139Z,27.70
2018-08-22T19:41:21.105Z,27.70
2018-08-22T19:44:02.603Z,27.70
2018-08-22T19:46:43.862Z,27.70
2018-08-22T19:49:24.629Z,27.80
2018-08-22T19:52:06.069Z,27.80
2018-08-22T19:54:46.619Z,27.80
2018-08-22T19:57:33.420Z,27.80
2018-08-22T20:00:15.411Z,27.80
2018-08-22T20:02:56.361Z,27.80
2018-08-22T20:05:41.956Z,27.90
2018-08-22T20:08:28.436Z,27.80
2018-08-22T20:11:09.905Z,27.80
2018-08-22T20:13:52.696Z,27.80
2018-08-22T20:16:34.033Z,27.80
2018-08-22T20:19:15.425Z,27.70
2018-08-22T20:21:57.009Z,27.70
2018-08-22T20:24:39.157Z,27.70
2018-08-22T20:27:20.332Z,27.70
2018-08-22T20:30:07.123Z,27.70
2018-08-22T20:32:50.501Z,27.70
2018-08-22T20:35:34.320Z,27.60
2018-08-22T20:38:15.785Z,27.60
2018-08-22T20:41:00.526Z,27.60
2018-08-22T20:43:41.905Z,27.50
2018-08-22T20:46:22.435Z,27.50
2018-08-22T20:49:03.011Z,27.50
2018-08-22T20:51:44.561Z,27.50
2018-08-22T20:54:25.183Z,27.50
2018-08-22T20:57:05.817Z,27.40
2018-08-22T20:59:46.425Z,27.40
2018-08-22T21:02:27.105Z,27.40
2018-08-22T21:05:08.534Z,27.30
2018-08-22T21:07:49.271Z,27.30
2018-08-22T21:10:29.969Z,27.30
2018-08-22T21:13:30.970Z,27.20
2018-08-22T21:16:12.349Z,27.20
2018-08-22T21:18:52.905Z,27.20
2018-08-22T21:21:34.377Z,27.10
2018-08-22T21:24:15.064Z,27.10
2018-08-22T21:26:56.531Z,27.10
2018-08-22T21:29:37.043Z,27.00
2018-08-22T21:32:19.245Z,27.00
2018-08-22T21:35:00.093Z,27.00
2018-08-22T21:37:41.661Z,26.90
2018-08-22T21:40:23.210Z,26.90
2018-08-22T21:43:03.726Z,26.80
2018-08-22T21:45:44.563Z,26.80
2018-08-22T21:48:26.848Z,26.80
2018-08-22T21:51:07.541Z,26.80
2018-08-22T21:53:49.025Z,26.80
2018-08-22T21:56:29.614Z,26.80
2018-08-22T21:59:11.773Z,26.80
2018-08-22T22:01:58.572Z,26.80
2018-08-22T22:04:41.145Z,26.80
2018-08-22T22:07:22.186Z,26.80
2018-08-22T22:10:08.825Z,26.90
2018-08-22T22:12:50.097Z,26.80
2018-08-22T22:15:36.625Z,26.80
2018-08-22T22:18:17.969Z,26.80
2018-08-22T22:20:59.451Z,26.80
2018-08-22T22:23:45.890Z,26.80
2018-08-22T22:26:26.800Z,26.80
2018-08-22T22:29:08.266Z,26.70
2018-08-22T22:31:48.826Z,26.70
2018-08-22T22:34:29.562Z,26.70
2018-08-22T22:37:10.118Z,26.70
2018-08-22T22:39:50.739Z,26.70
2018-08-22T22:42:32.303Z,26.80
2018-08-22T22:45:13.831Z,26.80
2018-08-22T22:47:55.392Z,26.70
2018-08-22T22:50:36.953Z,26.70
2018-08-22T22:53:17.533Z,26.60
2018-08-22T22:55:58.999Z,26.60
2018-08-22T22:58:40.452Z,26.60
2018-08-22T23:01:21.103Z,26.50
2018-08-22T23:04:01.733Z,26.40
2018-08-22T23:06:42.335Z,26.40
2018-08-22T23:09:23.774Z,26.40
2018-08-22T23:12:04.506Z,26.40
2018-08-22T23:14:46.059Z,26.40
2018-08-22T23:17:27.282Z,26.40
2018-08-22T23:20:13.315Z,26.40
2018-08-22T23:22:54.053Z,26.30
2018-08-22T23:25:35.395Z,26.30
2018-08-22T23:28:16.217Z,26.30
2018-08-22T23:30:57.657Z,26.20
2018-08-22T23:33:38.437Z,26.20
2018-08-22T23:36:19.863Z,26.10
2018-08-22T23:39:00.938Z,26.10
2018-08-22T23:41:41.988Z,26.10
2018-08-22T23:44:22.641Z,26.10
2018-08-22T23:47:04.014Z,26.10
2018-08-22T23:49:46.250Z,26.00
2018-08-22T23:52:27.074Z,26.00
2018-08-22T23:55:08.620Z,26.00
2018-08-22T23:57:50.125Z,26.00
